Time;durP1;ratioP1;P1;durP2;ratioP2;P2;SDS_P1;SDS_P2;PMS_P1;PMS_P2;Temp;Humidity;BMP_temperature;BMP_pressure;BME280_temperature;BME280_humidity;BME280_pressure;Samples;Min_cycle;Max_cycle;Signal;HPM_P1;HPM_P2
2021/05/13 00:01:38;;;;;;;2.15;1.60;;;;;;;20.02;55.71;99201.91;1748068;80;21103;-68
2021/05/13 00:04:05;;;;;;;1.90;1.50;;;;;;;20.01;55.74;99213.77;1797150;79;21548;-68
2021/05/13 00:06:32;;;;;;;1.60;1.50;;;;;;;20.00;55.72;99218.05;1775177;80;21024;-68
2021/05/13 00:08:58;;;;;;;2.27;1.62;;;;;;;19.99;55.69;99204.27;1790819;79;21593;-67
2021/05/13 00:11:36;;;;;;;2.47;1.60;;;;;;;19.97;55.77;99204.53;1776057;79;21220;-69
2021/05/13 00:14:02;;;;;;;1.77;1.65;;;;;;;19.97;55.80;99211.28;1773648;79;21043;-67
2021/05/13 00:16:30;;;;;;;4.62;2.30;;;;;;;19.95;55.84;99203.13;1800441;79;21638;-69
2021/05/13 00:18:57;;;;;;;2.95;1.60;;;;;;;19.93;55.91;99198.50;1790744;79;21079;-70
2021/05/13 00:21:25;;;;;;;1.75;1.60;;;;;;;19.91;55.95;99196.59;1795571;79;21540;-69
2021/05/13 00:23:51;;;;;;;1.75;1.60;;;;;;;19.89;55.89;99191.43;1770739;79;21069;-69
2021/05/13 00:26:34;;;;;;;1.80;1.62;;;;;;;19.88;55.87;99197.89;1768769;80;21036;-69
2021/05/13 00:28:46;;;;;;;1.60;1.50;;;;;;;19.88;55.89;99201.13;1778476;80;21068;-69
2021/05/13 00:31:12;;;;;;;3.10;1.50;;;;;;;19.86;55.79;99193.78;1770314;80;21053;-69
2021/05/13 00:33:39;;;;;;;1.57;1.47;;;;;;;19.84;55.85;99193.52;1755508;80;21559;-68
2021/05/13 00:36:05;;;;;;;2.22;1.62;;;;;;;19.83;55.67;99194.56;1762472;80;21458;-69
2021/05/13 00:38:32;;;;;;;1.82;1.42;;;;;;;19.81;55.73;99183.20;1781253;80;21077;-67
2021/05/13 00:40:58;;;;;;;3.08;1.55;;;;;;;19.79;55.66;99178.59;1771162;80;21031;-67
2021/05/13 00:43:25;;;;;;;1.60;1.50;;;;;;;19.77;55.69;99180.71;1769196;80;22376;-68
2021/05/13 00:45:51;;;;;;;1.70;1.25;;;;;;;19.77;55.67;99182.06;1775963;80;21064;-67
2021/05/13 00:48:18;;;;;;;3.08;1.80;;;;;;;19.75;55.67;99176.09;1775581;80;22216;-67
2021/05/13 00:50:45;;;;;;;3.40;1.60;;;;;;;19.74;55.66;99177.17;1781333;80;21052;-67
2021/05/13 00:53:12;;;;;;;1.62;1.22;;;;;;;19.73;55.67;99181.45;1781277;80;21091;-69
2021/05/13 00:55:40;;;;;;;1.62;1.52;;;;;;;19.71;55.54;99167.38;1756809;80;21078;-69
2021/05/13 00:58:07;;;;;;;2.67;1.50;;;;;;;19.70;55.61;99171.95;1761657;80;21051;-68
2021/05/13 01:00:41;;;;;;;2.33;1.77;;;;;;;19.67;55.54;99160.30;1723511;82;21154;-68
2021/05/13 01:03:02;;;;;;;2.40;1.42;;;;;;;19.66;55.51;99162.69;1769372;80;21583;-68
2021/05/13 01:05:30;;;;;;;2.00;1.47;;;;;;;19.65;55.47;99163.22;1778962;80;21059;-69
2021/05/13 01:07:58;;;;;;;1.98;1.37;;;;;;;19.64;55.47;99161.61;1777351;80;21068;-68
2021/05/13 01:10:25;;;;;;;1.40;1.30;;;;;;;19.62;55.34;99156.16;1759811;80;21055;-68
2021/05/13 01:12:53;;;;;;;1.52;1.42;;;;;;;19.59;55.32;99154.77;1775532;80;21091;-69
2021/05/13 01:15:26;;;;;;;2.50;1.60;;;;;;;19.58;55.23;99163.89;1764972;80;21572;-68
2021/05/13 01:18:02;;;;;;;2.15;1.47;;;;;;;19.58;55.36;99165.78;1778145;80;21590;-69
2021/05/13 01:20:26;;;;;;;2.17;1.20;;;;;;;19.56;55.36;99170.59;1765610;80;21618;-69
2021/05/13 01:22:54;;;;;;;2.37;1.90;;;;;;;19.54;55.29;99160.05;1754533;80;21095;-70
2021/05/13 01:25:20;;;;;;;2.55;1.60;;;;;;;19.52;55.45;99162.17;1754859;80;21652;-70
2021/05/13 01:27:47;;;;;;;1.77;1.62;;;;;;;19.51;55.35;99154.32;1772585;80;21599;-70
2021/05/13 01:30:16;;;;;;;2.33;1.42;;;;;;;19.50;55.49;99154.86;1759376;80;21076;-70
2021/05/13 01:32:43;;;;;;;2.00;1.82;;;;;;;19.49;55.44;99155.94;1763271;80;21064;-69
2021/05/13 01:35:12;;;;;;;2.75;1.82;;;;;;;19.48;55.53;99156.17;1750061;80;21063;-69
2021/05/13 01:37:38;;;;;;;3.45;2.50;;;;;;;19.48;55.59;99153.48;1759996;80;21119;-69
2021/05/13 01:40:07;;;;;;;6.03;3.30;;;;;;;19.47;55.64;99147.78;1770589;80;21599;-68
2021/05/13 01:42:33;;;;;;;3.67;3.20;;;;;;;19.45;55.65;99142.13;1774279;80;21059;-69
2021/05/13 01:45:00;;;;;;;4.90;2.70;;;;;;;19.45;55.54;99147.52;1758959;80;21075;-69
2021/05/13 01:47:27;;;;;;;3.52;3.15;;;;;;;19.44;55.62;99144.52;1768528;80;21392;-69
2021/05/13 01:49:53;;;;;;;2.83;2.33;;;;;;;19.44;55.53;99144.52;1757321;80;21074;-69
2021/05/13 01:52:19;;;;;;;3.50;2.80;;;;;;;19.44;55.64;99141.83;1782797;79;21056;-68
2021/05/13 01:54:46;;;;;;;4.75;3.10;;;;;;;19.42;55.46;99152.02;1760275;79;21294;-69
2021/05/13 01:57:12;;;;;;;2.72;2.52;;;;;;;19.42;55.37;99152.02;1750693;80;21579;-69
2021/05/13 01:59:38;;;;;;;3.37;2.70;;;;;;;19.41;55.35;99157.14;1839270;77;21067;-69
2021/05/13 02:02:07;;;;;;;2.87;2.58;;;;;;;19.41;55.49;99155.79;1815771;77;21827;-67
2021/05/13 02:04:35;;;;;;;3.90;2.87;;;;;;;19.41;55.46;99156.30;1831502;77;21132;-68
2021/05/13 02:07:01;;;;;;;2.95;2.62;;;;;;;19.40;55.58;99158.72;1831617;77;21051;-68
2021/05/13 02:09:29;;;;;;;3.85;2.55;;;;;;;19.39;55.52;99156.56;1817587;77;21056;-68
2021/05/13 02:11:59;;;;;;;4.40;2.80;;;;;;;19.38;55.63;99154.91;1809509;78;21266;-68
2021/05/13 02:14:26;;;;;;;4.15;1.98;;;;;;;19.38;55.53;99153.56;1818595;77;22343;-68
2021/05/13 02:16:53;;;;;;;5.05;2.62;;;;;;;19.38;55.52;99154.91;1815572;77;21060;-68
2021/05/13 02:19:19;;;;;;;5.00;2.60;;;;;;;19.37;55.38;99158.67;1819384;77;21016;-67
2021/05/13 02:21:46;;;;;;;2.52;2.20;;;;;;;19.36;55.22;99154.33;1759507;79;21123;-67
2021/05/13 02:24:12;;;;;;;2.75;2.42;;;;;;;19.36;55.15;99150.83;1776477;80;21087;-68
2021/05/13 02:26:38;;;;;;;2.70;2.40;;;;;;;19.35;55.18;99148.64;1766130;80;21072;-67
2021/05/13 02:29:05;;;;;;;2.98;2.20;;;;;;;19.35;55.08;99146.48;1796820;78;21071;-68
2021/05/13 02:31:31;;;;;;;2.47;2.22;;;;;;;19.34;55.13;99146.22;1778711;80;21028;-69
2021/05/13 02:33:59;;;;;;;3.27;2.75;;;;;;;19.34;55.08;99147.56;1842511;77;21566;-68
2021/05/13 02:36:25;;;;;;;2.52;2.08;;;;;;;19.32;55.01;99150.48;1814256;77;21023;-69
2021/05/13 02:38:52;;;;;;;2.47;2.10;;;;;;;19.32;55.00;99153.72;1832719;77;21106;-68
2021/05/13 02:41:18;;;;;;;2.52;2.10;;;;;;;19.30;55.05;99155.83;1795369;79;21099;-69
2021/05/13 02:43:45;;;;;;;2.92;2.12;;;;;;;19.30;54.89;99147.75;1777383;80;21069;-68
2021/05/13 02:46:12;;;;;;;3.40;1.95;;;;;;;19.30;54.76;99150.45;1841954;77;21031;-67
2021/05/13 02:48:38;;;;;;;3.77;2.40;;;;;;;19.28;54.81;99148.50;1849156;77;21055;-68
2021/05/13 02:51:05;;;;;;;3.55;2.08;;;;;;;19.28;54.74;99148.50;1820723;77;21566;-69
2021/05/13 02:53:31;;;;;;;2.20;2.00;;;;;;;19.26;54.69;99147.41;1818520;77;21169;-71
2021/05/13 02:55:58;;;;;;;3.65;1.90;;;;;;;19.26;54.69;99147.41;1827699;77;21586;-68
2021/05/13 02:58:24;;;;;;;2.52;1.80;;;;;;;19.25;54.79;99141.19;1828935;77;21032;-69
2021/05/13 03:01:05;;;;;;;3.67;2.20;;;;;;;19.24;54.76;99144.14;1799811;78;21071;-66
2021/05/13 03:03:22;;;;;;;3.40;2.10;;;;;;;19.24;54.65;99145.48;1812823;79;21075;-68
2021/05/13 03:05:51;;;;;;;3.72;2.20;;;;;;;19.22;54.71;99140.88;1804768;78;22119;-68
2021/05/13 03:08:17;;;;;;;3.27;1.98;;;;;;;19.22;54.57;99148.95;1831792;77;21586;-68
2021/05/13 03:10:45;;;;;;;2.50;2.20;;;;;;;19.22;54.59;99152.45;1821656;77;21078;-69
2021/05/13 03:13:19;;;;;;;3.27;2.33;;;;;;;19.21;54.57;99149.45;1847167;77;21052;-67
2021/05/13 03:15:41;;;;;;;2.33;2.12;;;;;;;19.21;54.56;99152.15;1844231;77;21099;-68
2021/05/13 03:18:09;;;;;;;3.30;2.12;;;;;;;19.21;54.68;99153.50;1833536;77;21130;-68
2021/05/13 03:20:39;;;;;;;4.10;2.37;;;;;;;19.22;54.58;99151.64;1826019;77;21542;-69
2021/05/13 03:23:07;;;;;;;3.15;2.50;;;;;;;19.22;54.59;99148.41;1829919;77;21051;-68
2021/05/13 03:25:36;;;;;;;3.30;2.33;;;;;;;19.22;54.59;99151.64;1808893;78;21075;-69
2021/05/13 03:28:09;;;;;;;3.15;2.85;;;;;;;19.23;54.63;99154.61;1796320;79;21100;-67
2021/05/13 03:30:42;;;;;;;3.00;2.70;;;;;;;19.24;54.54;99152.22;1814043;79;21071;-66
2021/05/13 03:33:09;;;;;;;5.50;3.00;;;;;;;19.24;54.47;99160.30;1738792;80;22240;-67
2021/05/13 03:35:37;;;;;;;2.95;2.65;;;;;;;19.24;54.55;99161.11;1730220;82;21116;-67
2021/05/13 03:38:05;;;;;;;5.78;3.15;;;;;;;19.25;54.58;99160.03;1789952;79;21071;-66
2021/05/13 03:40:31;;;;;;;4.62;2.15;;;;;;;19.27;54.47;99157.65;1781375;79;21644;-67
2021/05/13 03:43:00;;;;;;;4.83;2.47;;;;;;;19.28;54.44;99166.84;1805066;78;21075;-68
2021/05/13 03:45:26;;;;;;;4.58;2.70;;;;;;;19.30;54.44;99170.11;1790592;79;21008;-68
2021/05/13 03:47:53;;;;;;;3.22;2.80;;;;;;;19.32;54.48;99169.34;1799347;79;21051;-68
2021/05/13 03:50:20;;;;;;;4.35;2.55;;;;;;;19.33;54.39;99166.11;1804219;79;21036;-67
2021/05/13 03:52:46;;;;;;;4.42;2.33;;;;;;;19.35;54.48;99166.69;1795366;79;21075;-66
2021/05/13 03:55:13;;;;;;;2.62;2.37;;;;;;;19.35;54.50;99168.84;1804837;79;21560;-67
2021/05/13 03:57:41;;;;;;;4.33;2.72;;;;;;;19.38;54.53;99170.26;1781894;79;21052;-68
2021/05/13 04:00:12;;;;;;;4.25;2.47;;;;;;;19.38;54.41;99171.07;1737857;81;21034;-67
2021/05/13 04:02:38;;;;;;;2.37;2.17;;;;;;;19.40;54.40;99174.34;1809524;79;21571;-66
2021/05/13 04:05:06;;;;;;;4.20;3.50;;;;;;;19.41;54.30;99171.95;1791118;79;21040;-68
2021/05/13 04:07:35;;;;;;;5.15;4.12;;;;;;;19.44;54.22;99176.03;1787103;79;21070;-68
2021/05/13 04:10:04;;;;;;;5.20;3.67;;;;;;;19.45;54.26;99174.45;1798148;79;21045;-70
2021/05/13 04:12:30;;;;;;;3.87;3.50;;;;;;;19.46;54.14;99172.56;1795288;79;21091;-68
2021/05/13 04:14:58;;;;;;;4.55;3.12;;;;;;;19.48;54.13;99171.80;1799062;79;21064;-68
2021/05/13 04:17:25;;;;;;;4.80;3.12;;;;;;;19.50;54.10;99175.60;1784187;79;21056;-67
2021/05/13 04:19:52;;;;;;;5.97;3.50;;;;;;;19.52;53.96;99178.33;1786604;79;21067;-67
2021/05/13 04:22:18;;;;;;;3.80;3.17;;;;;;;19.54;54.03;99178.09;1809984;79;21020;-68
2021/05/13 04:24:44;;;;;;;3.67;3.22;;;;;;;19.56;53.90;99171.40;1787587;77;21114;-68
2021/05/13 04:27:11;;;;;;;3.42;2.52;;;;;;;19.58;53.79;99165.78;1792721;79;21587;-68
2021/05/13 04:29:37;;;;;;;3.45;3.02;;;;;;;19.61;53.70;99162.61;1775810;80;21150;-68
2021/05/13 04:32:04;;;;;;;5.40;2.70;;;;;;;19.64;53.63;99163.46;1780731;79;21590;-68
2021/05/13 04:34:30;;;;;;;3.40;3.10;;;;;;;19.65;53.62;99160.53;1774694;80;21081;-67
2021/05/13 04:36:57;;;;;;;3.95;3.30;;;;;;;19.69;53.47;99150.09;1755865;80;21171;-69
2021/05/13 04:39:23;;;;;;;3.33;2.62;;;;;;;19.73;53.33;99152.62;1761795;80;21099;-68
2021/05/13 04:41:51;;;;;;;3.47;3.08;;;;;;;19.78;53.24;99155.92;1754297;80;21099;-67
2021/05/13 04:44:18;;;;;;;3.75;3.05;;;;;;;19.81;53.10;99156.26;1767541;80;21076;-69
2021/05/13 04:46:45;;;;;;;4.45;3.02;;;;;;;19.86;52.96;99152.02;1758786;80;21075;-69
2021/05/13 04:51:38;;;;;;;3.40;3.08;;;;;;;19.93;52.81;99151.33;1771027;80;21055;-69
2021/05/13 04:54:04;;;;;;;3.85;2.92;;;;;;;19.97;52.62;99152.48;1777073;80;21106;-68
2021/05/13 04:56:31;;;;;;;3.72;2.80;;;;;;;20.00;52.41;99154.16;1750517;80;21079;-68
2021/05/13 04:58:58;;;;;;;3.87;2.77;;;;;;;20.05;52.37;99154.80;1755440;80;21044;-68
2021/05/13 05:01:25;;;;;;;3.00;2.72;;;;;;;20.08;52.09;99159.67;1764762;80;21051;-67
2021/05/13 05:03:52;;;;;;;5.47;3.00;;;;;;;20.12;51.98;99157.31;1754372;80;21055;-67
2021/05/13 05:06:18;;;;;;;4.78;3.08;;;;;;;20.14;51.87;99151.95;1774908;80;21199;-67
2021/05/13 05:08:45;;;;;;;3.42;3.10;;;;;;;20.18;51.77;99152.28;1749261;80;21092;-70
2021/05/13 05:11:16;;;;;;;3.40;2.98;;;;;;;20.20;51.60;99153.69;1771749;80;21084;-69
2021/05/13 05:13:41;;;;;;;4.62;2.72;;;;;;;20.25;51.42;99152.13;1788629;79;21152;-68
2021/05/13 05:16:07;;;;;;;3.52;3.22;;;;;;;20.27;51.26;99153.52;1791156;79;21626;-67
2021/05/13 05:18:34;;;;;;;3.72;3.27;;;;;;;20.30;51.11;99153.55;1777283;79;21067;-67
2021/05/13 05:21:00;;;;;;;5.12;3.62;;;;;;;20.32;50.95;99148.20;1790571;79;21091;-68
2021/05/13 05:23:29;;;;;;;3.95;3.35;;;;;;;20.36;50.83;99149.88;1781101;79;21533;-68
2021/05/13 05:25:56;;;;;;;4.03;2.95;;;;;;;20.37;50.69;99154.20;1778440;79;21061;-69
2021/05/13 05:28:24;;;;;;;5.28;3.30;;;;;;;20.39;50.73;99148.02;1820234;77;21084;-68
2021/05/13 05:30:51;;;;;;;6.33;3.85;;;;;;;20.40;50.49;99151.83;1834448;77;21087;-67
2021/05/13 05:33:17;;;;;;;5.42;3.60;;;;;;;20.43;50.33;99155.91;1817164;77;21564;-67
2021/05/13 05:35:44;;;;;;;5.75;3.70;;;;;;;20.43;50.14;99149.97;1830436;77;21016;-69
2021/05/13 05:38:10;;;;;;;6.65;4.40;;;;;;;20.46;49.98;99152.73;1844046;77;21051;-68
2021/05/13 05:40:39;;;;;;;6.47;3.98;;;;;;;20.48;49.68;99147.09;1815829;77;21533;-68
2021/05/13 05:43:05;;;;;;;5.42;3.80;;;;;;;20.50;49.70;99144.95;1814140;77;21127;-67
2021/05/13 05:45:32;;;;;;;7.33;3.90;;;;;;;20.51;49.55;99142.53;1812773;77;21029;-70
2021/05/13 05:48:01;;;;;;;5.53;4.22;;;;;;;20.52;49.51;99144.17;1827692;77;21039;-69
2021/05/13 05:50:30;;;;;;;5.80;3.77;;;;;;;20.53;49.37;99143.09;1840490;77;21091;-70
2021/05/13 05:52:57;;;;;;;5.17;3.20;;;;;;;20.54;49.21;99142.85;1828160;77;21057;-69
2021/05/13 05:55:23;;;;;;;5.92;3.67;;;;;;;20.56;49.14;99142.61;1819700;76;21098;-69
2021/05/13 05:57:49;;;;;;;3.55;3.15;;;;;;;20.58;49.06;99138.59;1813125;77;21057;-69
2021/05/13 06:00:17;;;;;;;5.55;3.80;;;;;;;20.61;48.78;99144.08;1812377;77;21071;-69
2021/05/13 06:02:46;;;;;;;7.10;4.12;;;;;;;20.62;48.62;99145.15;1815348;77;21033;-67
2021/05/13 06:05:13;;;;;;;6.50;3.50;;;;;;;20.63;48.60;99143.30;1812904;77;21567;-68
2021/05/13 06:07:41;;;;;;;5.80;3.72;;;;;;;20.65;48.51;99140.32;1818424;77;21085;-68
2021/05/13 06:10:09;;;;;;;4.75;3.10;;;;;;;20.65;48.34;99143.86;1831631;77;21050;-69
2021/05/13 06:12:36;;;;;;;5.03;3.67;;;;;;;20.67;48.20;99140.88;1828401;77;21072;-68
2021/05/13 06:15:05;;;;;;;4.95;3.30;;;;;;;20.68;48.01;99151.98;1817118;77;21031;-73
2021/05/13 06:17:33;;;;;;;3.98;3.58;;;;;;;20.69;47.94;99146.87;1816534;77;21084;-73
2021/05/13 06:20:02;;;;;;;4.22;3.20;;;;;;;20.72;47.73;99147.72;1842184;77;21125;-66
2021/05/13 06:22:29;;;;;;;7.37;3.65;;;;;;;20.72;47.63;99145.83;1817748;77;21040;-67
2021/05/13 06:24:56;;;;;;;4.28;3.08;;;;;;;20.73;47.52;99152.88;1817692;77;21136;-67
2021/05/13 06:27:23;;;;;;;5.62;3.33;;;;;;;20.76;47.40;99154.24;1797388;78;21115;-67
2021/05/13 06:29:49;;;;;;;5.25;3.08;;;;;;;20.78;47.41;99149.41;1752572;80;21120;-71
2021/05/13 06:32:16;;;;;;;5.95;3.05;;;;;;;20.80;47.02;99154.86;1795679;78;21119;-68
2021/05/13 06:34:43;;;;;;;3.83;2.92;;;;;;;20.85;46.80;99154.64;1769039;80;21051;-69
2021/05/13 06:37:10;;;;;;;4.83;2.77;;;;;;;20.86;46.59;99150.35;1819717;78;21071;-68
2021/05/13 06:39:37;;;;;;;5.33;3.05;;;;;;;20.87;46.59;99156.02;1781101;80;21551;-67
2021/05/13 06:42:05;;;;;;;4.33;2.65;;;;;;;20.89;46.43;99149.84;1790212;78;21086;-69
2021/05/13 06:44:31;;;;;;;4.95;2.83;;;;;;;20.91;46.31;99158.50;1786804;78;21666;-68
2021/05/13 06:46:58;;;;;;;4.75;2.50;;;;;;;20.92;46.06;99165.55;1810248;78;21040;-68
2021/05/13 06:49:24;;;;;;;3.58;2.17;;;;;;;20.93;45.95;99168.52;1782559;80;21032;-68
2021/05/13 06:51:51;;;;;;;5.47;2.60;;;;;;;20.96;45.74;99169.38;1803900;77;21679;-67
2021/05/13 06:54:17;;;;;;;5.62;2.62;;;;;;;20.99;45.50;99161.30;1761376;80;21582;-68
2021/05/13 06:56:44;;;;;;;2.83;2.37;;;;;;;21.00;45.57;99159.70;1805794;78;21079;-68
2021/05/13 06:59:10;;;;;;;2.60;2.40;;;;;;;21.04;45.34;99157.86;1789046;78;21073;-67
2021/05/13 07:01:37;;;;;;;3.77;2.50;;;;;;;21.07;45.16;99154.64;1790032;78;21125;-67
2021/05/13 07:04:04;;;;;;;5.85;2.20;;;;;;;21.09;45.05;99157.37;1814112;78;21051;-69
2021/05/13 07:06:33;;;;;;;2.10;1.87;;;;;;;21.13;44.98;99160.38;1822539;78;21052;-70
2021/05/13 07:09:01;;;;;;;6.45;2.10;;;;;;;21.16;44.89;99163.95;1833953;77;21696;-65
2021/05/13 07:11:27;;;;;;;3.83;2.30;;;;;;;21.18;48.01;99159.11;1811193;77;21083;-64
2021/05/13 07:13:54;;;;;;;3.90;2.25;;;;;;;21.21;48.72;99153.21;1796298;78;21584;-65
2021/05/13 07:16:20;;;;;;;4.53;2.10;;;;;;;21.24;48.89;99149.18;1800602;78;21135;-66
2021/05/13 07:18:47;;;;;;;3.17;1.85;;;;;;;21.27;47.50;99158.95;1780197;80;21070;-66
2021/05/13 07:21:14;;;;;;;5.40;2.02;;;;;;;21.26;47.71;99145.14;1806432;78;21170;-65
2021/05/13 07:23:43;;;;;;;3.35;2.00;;;;;;;21.28;47.91;99136.25;1796079;78;21566;-63
2021/05/13 07:26:10;;;;;;;4.33;2.20;;;;;;;21.35;48.10;99130.67;1794781;77;21689;-64
2021/05/13 07:28:38;;;;;;;4.62;2.00;;;;;;;21.41;47.63;99145.86;1783481;79;21085;-63
2021/05/13 07:31:04;;;;;;;3.25;1.70;;;;;;;21.46;47.39;99133.80;1798121;79;21008;-62
2021/05/13 07:33:31;;;;;;;3.45;2.52;;;;;;;21.51;47.03;99137.08;1780772;79;21115;-63
2021/05/13 07:35:57;;;;;;;1.85;1.50;;;;;;;21.57;47.08;99130.64;1774260;80;21118;-64
2021/05/13 07:38:24;;;;;;;6.10;1.98;;;;;;;21.63;46.84;99125.56;1772218;80;21062;-64
2021/05/13 07:40:51;;;;;;;3.02;1.82;;;;;;;21.69;46.59;99127.27;1760655;80;21096;-65
2021/05/13 07:43:19;;;;;;;3.15;2.05;;;;;;;21.76;46.59;99142.72;1820143;77;21051;-65
2021/05/13 07:45:46;;;;;;;3.72;1.98;;;;;;;21.81;45.99;99132.52;1823881;77;21791;-62
2021/05/13 07:48:12;;;;;;;10.08;6.37;;;;;;;21.85;45.52;99128.77;1846552;77;21022;-63
2021/05/13 07:50:39;;;;;;;10.28;5.17;;;;;;;21.88;45.91;99122.82;1782881;79;21044;-63
2021/05/13 07:53:06;;;;;;;5.33;3.20;;;;;;;21.93;45.79;99129.09;1796985;79;21064;-70
2021/05/13 07:55:34;;;;;;;7.25;3.50;;;;;;;21.96;45.54;99127.75;1769863;79;21028;-65
2021/05/13 07:58:01;;;;;;;6.80;3.83;;;;;;;21.98;45.11;99123.73;1796238;79;21056;-68
2021/05/13 08:00:28;;;;;;;7.15;3.83;;;;;;;22.01;46.33;99108.87;1782766;79;21136;-71
2021/05/13 08:02:54;;;;;;;6.42;3.70;;;;;;;22.07;46.92;99109.19;1780440;79;21077;-81
2021/05/13 08:05:20;;;;;;;4.45;3.55;;;;;;;22.15;47.37;99121.41;1794856;79;21102;-73
2021/05/13 08:07:47;;;;;;;9.85;3.62;;;;;;;22.21;47.80;99110.09;1760868;80;21048;-71
2021/05/13 08:10:14;;;;;;;9.83;3.52;;;;;;;22.27;48.14;99107.73;1746853;81;21646;-74
2021/05/13 08:12:40;;;;;;;5.65;3.12;;;;;;;22.33;48.42;99121.05;1769486;80;21119;-75
2021/05/13 08:15:10;;;;;;;9.85;3.40;;;;;;;22.40;48.63;99123.51;1763746;80;21021;-73
2021/05/13 08:17:40;;;;;;;6.97;2.98;;;;;;;22.46;48.79;99110.28;1774899;79;21543;-75
2021/05/13 08:20:09;;;;;;;6.75;3.33;;;;;;;22.52;48.92;99116.03;1775431;80;21660;-81
2021/05/13 08:22:35;;;;;;;5.20;2.90;;;;;;;22.53;48.97;99102.75;1751809;80;21104;-84
2021/05/13 08:25:04;;;;;;;8.23;3.47;;;;;;;22.62;49.00;99116.62;1794450;79;21060;-71
2021/05/13 08:27:31;;;;;;;6.70;3.05;;;;;;;22.67;49.03;99123.39;1769994;79;21095;-74
2021/05/13 08:29:59;;;;;;;6.58;3.30;;;;;;;22.73;49.04;99114.77;1755120;80;21128;-76
2021/05/13 08:32:25;;;;;;;6.20;3.00;;;;;;;22.77;49.06;99126.17;1766046;80;21062;-74
2021/05/13 08:34:52;;;;;;;3.55;2.70;;;;;;;22.83;49.01;99137.84;1815576;77;21125;-70
2021/05/13 08:37:19;;;;;;;3.30;2.60;;;;;;;22.90;49.12;99141.66;1846436;77;21692;-68
2021/05/13 08:39:46;;;;;;;3.40;2.95;;;;;;;22.95;49.16;99138.44;1784975;79;21028;-69
2021/05/13 08:42:12;;;;;;;3.80;2.87;;;;;;;23.00;49.29;99135.47;1803226;79;21075;-71
2021/05/13 08:44:42;;;;;;;5.45;2.65;;;;;;;23.02;49.34;99134.66;1799964;79;22191;-67
2021/05/13 08:47:09;;;;;;;4.37;2.45;;;;;;;23.04;49.32;99131.98;1809087;79;21087;-69
2021/05/13 08:49:37;;;;;;;5.28;2.65;;;;;;;23.08;49.24;99133.63;1821526;77;21651;-69
2021/05/13 08:52:13;;;;;;;3.17;2.17;;;;;;;23.09;49.22;99133.38;1837757;77;21111;-68
2021/05/13 08:54:52;;;;;;;3.70;2.60;;;;;;;23.13;49.18;99120.11;1810525;77;21101;-69
2021/05/13 08:57:19;;;;;;;3.12;2.10;;;;;;;23.15;49.22;99135.56;1826362;77;21118;-71
2021/05/13 08:59:46;;;;;;;4.65;3.00;;;;;;;23.19;49.28;99122.30;1844020;77;21605;-72
2021/05/13 09:02:15;;;;;;;5.30;2.90;;;;;;;23.20;49.31;99134.23;1823059;77;21059;-70
2021/05/13 09:04:51;;;;;;;4.87;2.40;;;;;;;23.25;49.37;99138.30;1813658;77;21539;-68
2021/05/13 09:07:28;;;;;;;2.83;2.20;;;;;;;23.29;49.42;99137.22;1836928;77;21106;-67
2021/05/13 09:10:08;;;;;;;3.12;2.50;;;;;;;23.32;49.44;99126.67;1821978;77;21005;-67
2021/05/13 09:12:41;;;;;;;3.70;2.33;;;;;;;23.36;49.54;99136.44;1814333;77;21053;-71
2021/05/13 09:15:14;;;;;;;2.85;2.27;;;;;;;23.40;49.53;99127.24;1815226;77;21079;-69
2021/05/13 09:17:43;;;;;;;4.53;2.85;;;;;;;23.43;49.45;99123.98;1825985;77;22080;-67
2021/05/13 09:20:36;;;;;;;2.60;2.10;;;;;;;23.46;49.54;99124.26;1826405;76;21114;-68
2021/05/13 09:23:23;;;;;;;5.33;2.67;;;;;;;23.50;49.54;99117.77;1830681;77;21040;-69
2021/05/13 09:26:11;;;;;;;3.65;2.00;;;;;;;23.50;49.49;99109.63;1813269;77;21076;-71
2021/05/13 09:28:38;;;;;;;4.17;2.27;;;;;;;23.54;49.57;99119.66;1808170;77;21106;-71
2021/05/13 09:31:06;;;;;;;2.35;2.15;;;;;;;23.57;49.58;99119.69;1804942;77;21043;-69
2021/05/13 09:33:37;;;;;;;2.37;2.17;;;;;;;23.61;49.57;99105.86;1815610;77;21036;-68
2021/05/13 09:36:23;;;;;;;3.05;2.22;;;;;;;23.64;49.63;99118.89;1834269;77;21098;-69
2021/05/13 09:38:49;;;;;;;3.12;2.20;;;;;;;23.68;49.60;99117.27;1827164;77;21160;-69
2021/05/13 09:42:05;;;;;;;2.98;2.08;;;;;;;23.77;49.56;99104.52;1844655;75;22627;-68
2021/05/13 09:44:40;;;;;;;3.75;2.20;;;;;;;23.77;49.49;99095.02;1790153;78;21030;-69
2021/05/13 09:47:20;;;;;;;3.98;2.20;;;;;;;23.82;49.48;99112.15;1792812;77;21084;-69
2021/05/13 09:50:21;;;;;;;2.20;1.92;;;;;;;23.85;49.39;99122.98;1801817;79;21018;-69
2021/05/13 09:52:53;;;;;;;2.83;1.85;;;;;;;23.89;49.32;99115.41;1796919;77;21018;-67
2021/05/13 09:55:24;;;;;;;2.40;1.98;;;;;;;23.96;49.26;99118.39;1783584;77;21055;-68
2021/05/13 09:58:07;;;;;;;4.87;2.05;;;;;;;23.96;49.26;99118.39;1791144;78;21122;-71
2021/05/13 10:00:48;;;;;;;2.50;2.00;;;;;;;24.01;49.18;99115.66;1792041;79;21036;-70
2021/05/13 10:03:21;;;;;;;2.05;1.77;;;;;;;24.06;49.03;99111.05;1753090;78;21010;-69
2021/05/13 10:05:53;;;;;;;2.30;2.05;;;;;;;24.13;48.89;99106.16;1801735;78;20958;-67
2021/05/13 10:08:20;;;;;;;2.40;2.17;;;;;;;24.21;48.78;99115.66;1785940;78;21085;-69
2021/05/13 10:10:47;;;;;;;2.77;2.10;;;;;;;24.28;48.65;99097.72;1791221;77;21051;-69
2021/05/13 10:13:17;;;;;;;2.02;1.90;;;;;;;24.36;48.57;99109.40;1791563;78;21118;-70
2021/05/13 10:15:43;;;;;;;2.95;1.92;;;;;;;24.45;48.45;99104.20;1804337;77;21601;-69
2021/05/13 10:18:18;;;;;;;2.85;1.70;;;;;;;24.53;48.34;99109.93;1812086;78;21028;-70
2021/05/13 10:20:45;;;;;;;2.40;2.20;;;;;;;24.62;48.16;99120.22;1800851;78;21082;-71
2021/05/13 10:23:13;;;;;;;2.12;1.92;;;;;;;24.71;48.01;99109.06;1798526;77;21074;-70
2021/05/13 10:25:40;;;;;;;2.12;1.92;;;;;;;24.79;47.90;99098.98;1806546;77;21191;-71
2021/05/13 10:28:08;;;;;;;2.55;2.02;;;;;;;24.86;47.84;99099.50;1788639;78;21115;-70
2021/05/13 10:30:36;;;;;;;2.40;1.90;;;;;;;24.96;47.67;99096.48;1748174;79;21071;-70
2021/05/13 10:33:09;;;;;;;2.17;1.90;;;;;;;25.05;47.57;99102.94;1800977;78;21598;-68
2021/05/13 10:35:36;;;;;;;2.70;1.90;;;;;;;25.14;47.41;99084.96;1795823;78;21048;-69
2021/05/13 10:38:09;;;;;;;2.02;1.80;;;;;;;25.23;47.37;99083.31;1791572;78;21778;-68
2021/05/13 10:40:46;;;;;;;1.60;1.50;;;;;;;25.29;47.38;99084.91;1810772;77;21064;-68
2021/05/13 10:43:11;;;;;;;2.10;1.90;;;;;;;25.38;47.28;99093.81;1789959;76;21105;-68
2021/05/13 10:45:43;;;;;;;1.95;1.75;;;;;;;25.47;47.12;99082.62;1768200;79;21079;-68
2021/05/13 10:48:27;;;;;;;2.47;1.80;;;;;;;25.55;47.11;99090.16;1778742;77;21099;-70
2021/05/13 10:51:03;;;;;;;2.37;1.60;;;;;;;25.63;47.04;99078.70;1777903;77;21047;-70
2021/05/13 10:53:42;;;;;;;1.90;1.70;;;;;;;25.70;46.97;99105.56;1764404;79;21070;-68
2021/05/13 10:56:30;;;;;;;1.72;1.62;;;;;;;25.77;46.89;99079.39;1772732;77;21602;-69
2021/05/13 10:59:11;;;;;;;2.33;1.92;;;;;;;25.85;46.75;99066.56;1788481;79;21027;-69
2021/05/13 11:01:50;;;;;;;2.40;1.70;;;;;;;25.89;46.72;99068.41;1784377;78;21054;-68
2021/05/13 11:04:29;;;;;;;2.37;1.60;;;;;;;25.96;46.72;99083.09;1782546;79;21086;-67
2021/05/13 11:06:59;;;;;;;2.02;1.82;;;;;;;26.03;46.66;99073.22;1760137;80;21137;-69
2021/05/13 11:09:46;;;;;;;2.72;1.70;;;;;;;26.08;46.76;99070.46;1741696;81;21111;-67
2021/05/13 11:12:40;;;;;;;2.47;1.87;;;;;;;26.13;46.69;99079.12;1729059;79;21055;-67
2021/05/13 11:15:24;;;;;;;2.35;1.82;;;;;;;26.18;46.45;99073.08;1751101;81;21074;-68
2021/05/13 11:18:01;;;;;;;3.27;1.77;;;;;;;26.23;46.56;99081.20;1739915;81;21670;-68
2021/05/13 11:20:35;;;;;;;2.90;1.90;;;;;;;26.28;46.59;99078.97;1754248;79;21081;-69
2021/05/13 11:23:14;;;;;;;1.87;1.67;;;;;;;26.32;46.71;99081.38;1784483;77;21284;-69
2021/05/13 11:25:43;;;;;;;1.98;1.77;;;;;;;26.36;46.40;99084.33;1796682;77;21122;-69
2021/05/13 11:28:41;;;;;;;2.60;2.00;;;;;;;26.39;46.27;99085.13;1777323;79;21078;-67
2021/05/13 11:31:20;;;;;;;2.08;1.60;;;;;;;26.39;46.08;99100.91;1787720;79;21064;-67
2021/05/13 11:33:56;;;;;;;2.70;2.12;;;;;;;26.41;46.19;99081.01;1774257;79;22082;-65
2021/05/13 11:36:29;;;;;;;3.60;2.33;;;;;;;26.46;44.32;99101.39;1792504;77;21587;-65
2021/05/13 11:39:08;;;;;;;3.87;2.27;;;;;;;26.42;39.86;99100.31;1779629;77;21083;-67
2021/05/13 11:41:32;;;;;;;3.67;2.25;;;;;;;26.35;36.46;99107.20;1788797;77;21055;-67
2021/05/13 11:43:59;;;;;;;7.37;2.62;;;;;;;26.19;35.58;99080.16;1782681;79;21079;-65
2021/05/13 11:46:26;;;;;;;7.40;2.77;;;;;;;26.00;34.98;99069.17;1767911;77;21090;-65